sensor_id;sensor_type;location;lat;lon;timestamp;P1;durP1;ratioP1;P2;durP2;ratioP2
73841;SDS011;62184;52.006;5.924;2022-09-21T00:01:18;6.32;;;1.58;;
73841;SDS011;62184;52.006;5.924;2022-09-21T00:03:50;5.77;;;1.90;;
73841;SDS011;62184;52.006;5.924;2022-09-21T00:06:19;6.38;;;1.80;;
73841;SDS011;62184;52.006;5.924;2022-09-21T00:08:47;7.20;;;2.00;;
73841;SDS011;62184;52.006;5.924;2022-09-21T00:11:15;7.13;;;2.15;;
73841;SDS011;62184;52.006;5.924;2022-09-21T00:13:44;6.23;;;1.80;;
73841;SDS011;62184;52.006;5.924;2022-09-21T00:16:12;6.20;;;1.80;;
73841;SDS011;62184;52.006;5.924;2022-09-21T00:18:43;6.60;;;1.50;;
73841;SDS011;62184;52.006;5.924;2022-09-21T00:21:10;6.55;;;1.45;;
73841;SDS011;62184;52.006;5.924;2022-09-21T00:23:40;7.53;;;1.80;;
73841;SDS011;62184;52.006;5.924;2022-09-21T00:26:07;5.05;;;1.50;;
73841;SDS011;62184;52.006;5.924;2022-09-21T00:28:37;5.83;;;2.30;;
73841;SDS011;62184;52.006;5.924;2022-09-21T00:31:05;6.60;;;2.08;;
73841;SDS011;62184;52.006;5.924;2022-09-21T00:33:34;7.38;;;1.80;;
73841;SDS011;62184;52.006;5.924;2022-09-21T00:36:05;5.22;;;1.60;;
73841;SDS011;62184;52.006;5.924;2022-09-21T00:38:34;5.45;;;1.50;;
73841;SDS011;62184;52.006;5.924;2022-09-21T00:41:02;5.78;;;1.80;;
73841;SDS011;62184;52.006;5.924;2022-09-21T00:43:31;6.68;;;1.90;;
73841;SDS011;62184;52.006;5.924;2022-09-21T00:46:00;5.83;;;1.60;;
73841;SDS011;62184;52.006;5.924;2022-09-21T00:48:31;6.97;;;1.67;;
73841;SDS011;62184;52.006;5.924;2022-09-21T00:51:00;5.47;;;2.17;;
73841;SDS011;62184;52.006;5.924;2022-09-21T00:53:33;9.38;;;2.13;;
73841;SDS011;62184;52.006;5.924;2022-09-21T00:56:02;6.32;;;2.05;;
73841;SDS011;62184;52.006;5.924;2022-09-21T00:58:32;7.20;;;2.08;;
73841;SDS011;62184;52.006;5.924;2022-09-21T01:01:05;5.82;;;1.65;;
73841;SDS011;62184;52.006;5.924;2022-09-21T01:03:32;5.33;;;1.50;;
73841;SDS011;62184;52.006;5.924;2022-09-21T01:05:59;5.13;;;1.95;;
73841;SDS011;62184;52.006;5.924;2022-09-21T01:08:28;6.70;;;2.23;;
73841;SDS011;62184;52.006;5.924;2022-09-21T01:11:03;4.82;;;1.70;;
73841;SDS011;62184;52.006;5.924;2022-09-21T01:13:55;6.15;;;2.13;;
73841;SDS011;62184;52.006;5.924;2022-09-21T01:16:54;5.53;;;1.80;;
73841;SDS011;62184;52.006;5.924;2022-09-21T01:19:38;5.85;;;2.00;;
73841;SDS011;62184;52.006;5.924;2022-09-21T01:22:34;8.02;;;2.00;;
73841;SDS011;62184;52.006;5.924;2022-09-21T01:25:22;6.03;;;1.70;;
73841;SDS011;62184;52.006;5.924;2022-09-21T01:28:13;6.87;;;1.70;;
73841;SDS011;62184;52.006;5.924;2022-09-21T01:30:56;7.43;;;1.92;;
73841;SDS011;62184;52.006;5.924;2022-09-21T01:33:31;5.70;;;1.60;;
73841;SDS011;62184;52.006;5.924;2022-09-21T01:36:04;6.13;;;1.88;;
73841;SDS011;62184;52.006;5.924;2022-09-21T01:38:39;7.93;;;1.70;;
73841;SDS011;62184;52.006;5.924;2022-09-21T01:41:13;7.75;;;2.08;;
73841;SDS011;62184;52.006;5.924;2022-09-21T01:43:46;5.50;;;1.77;;
73841;SDS011;62184;52.006;5.924;2022-09-21T01:46:22;8.60;;;1.63;;
73841;SDS011;62184;52.006;5.924;2022-09-21T01:48:57;7.05;;;2.10;;
73841;SDS011;62184;52.006;5.924;2022-09-21T01:51:30;7.40;;;1.90;;
73841;SDS011;62184;52.006;5.924;2022-09-21T01:54:01;7.63;;;1.90;;
73841;SDS011;62184;52.006;5.924;2022-09-21T01:56:37;6.32;;;1.98;;
73841;SDS011;62184;52.006;5.924;2022-09-21T01:59:10;6.85;;;1.80;;
73841;SDS011;62184;52.006;5.924;2022-09-21T02:01:49;6.65;;;1.70;;
73841;SDS011;62184;52.006;5.924;2022-09-21T02:04:22;6.70;;;1.90;;
73841;SDS011;62184;52.006;5.924;2022-09-21T02:06:49;7.70;;;1.97;;
73841;SDS011;62184;52.006;5.924;2022-09-21T02:09:17;7.05;;;2.05;;
73841;SDS011;62184;52.006;5.924;2022-09-21T02:11:44;10.18;;;1.60;;
73841;SDS011;62184;52.006;5.924;2022-09-21T02:14:11;8.05;;;1.90;;
73841;SDS011;62184;52.006;5.924;2022-09-21T02:16:43;7.75;;;1.95;;
73841;SDS011;62184;52.006;5.924;2022-09-21T02:19:29;6.47;;;1.50;;
73841;SDS011;62184;52.006;5.924;2022-09-21T02:22:08;5.55;;;1.73;;
73841;SDS011;62184;52.006;5.924;2022-09-21T02:24:42;5.97;;;1.53;;
73841;SDS011;62184;52.006;5.924;2022-09-21T02:27:17;7.72;;;2.22;;
73841;SDS011;62184;52.006;5.924;2022-09-21T02:29:58;6.80;;;1.70;;
73841;SDS011;62184;52.006;5.924;2022-09-21T02:32:36;6.97;;;1.83;;
73841;SDS011;62184;52.006;5.924;2022-09-21T02:35:15;6.00;;;1.70;;
73841;SDS011;62184;52.006;5.924;2022-09-21T02:37:54;8.45;;;2.00;;
73841;SDS011;62184;52.006;5.924;2022-09-21T02:40:32;8.95;;;1.80;;
73841;SDS011;62184;52.006;5.924;2022-09-21T02:43:07;8.20;;;1.90;;
73841;SDS011;62184;52.006;5.924;2022-09-21T02:45:44;6.70;;;1.83;;
73841;SDS011;62184;52.006;5.924;2022-09-21T02:48:21;6.28;;;1.70;;
73841;SDS011;62184;52.006;5.924;2022-09-21T02:50:56;6.10;;;1.90;;
73841;SDS011;62184;52.006;5.924;2022-09-21T02:53:30;6.60;;;1.80;;
73841;SDS011;62184;52.006;5.924;2022-09-21T02:56:01;7.00;;;1.83;;
73841;SDS011;62184;52.006;5.924;2022-09-21T02:58:33;9.20;;;1.70;;
73841;SDS011;62184;52.006;5.924;2022-09-21T03:01:04;8.07;;;1.90;;
73841;SDS011;62184;52.006;5.924;2022-09-21T03:03:38;7.68;;;1.85;;
73841;SDS011;62184;52.006;5.924;2022-09-21T03:06:04;6.70;;;1.73;;
73841;SDS011;62184;52.006;5.924;2022-09-21T03:08:31;7.50;;;1.80;;
73841;SDS011;62184;52.006;5.924;2022-09-21T03:10:58;7.60;;;1.83;;
73841;SDS011;62184;52.006;5.924;2022-09-21T03:13:24;7.32;;;1.90;;
73841;SDS011;62184;52.006;5.924;2022-09-21T03:15:57;7.38;;;1.70;;
73841;SDS011;62184;52.006;5.924;2022-09-21T03:18:25;8.23;;;1.90;;
73841;SDS011;62184;52.006;5.924;2022-09-21T03:20:55;8.47;;;1.87;;
73841;SDS011;62184;52.006;5.924;2022-09-21T03:23:21;10.27;;;2.03;;
73841;SDS011;62184;52.006;5.924;2022-09-21T03:25:48;8.50;;;2.03;;
73841;SDS011;62184;52.006;5.924;2022-09-21T03:28:15;7.57;;;1.80;;
73841;SDS011;62184;52.006;5.924;2022-09-21T03:30:41;9.67;;;2.33;;
73841;SDS011;62184;52.006;5.924;2022-09-21T03:33:08;9.82;;;2.00;;
73841;SDS011;62184;52.006;5.924;2022-09-21T03:35:35;7.78;;;2.10;;
73841;SDS011;62184;52.006;5.924;2022-09-21T03:38:04;9.73;;;2.13;;
73841;SDS011;62184;52.006;5.924;2022-09-21T03:40:31;9.50;;;2.05;;
73841;SDS011;62184;52.006;5.924;2022-09-21T03:42:57;7.30;;;1.90;;
73841;SDS011;62184;52.006;5.924;2022-09-21T03:45:24;10.15;;;2.22;;
73841;SDS011;62184;52.006;5.924;2022-09-21T03:47:51;8.40;;;1.90;;
73841;SDS011;62184;52.006;5.924;2022-09-21T03:50:20;7.30;;;2.00;;
73841;SDS011;62184;52.006;5.924;2022-09-21T03:52:47;10.07;;;2.10;;
73841;SDS011;62184;52.006;5.924;2022-09-21T03:55:16;8.52;;;2.08;;
73841;SDS011;62184;52.006;5.924;2022-09-21T03:57:43;8.70;;;1.90;;
73841;SDS011;62184;52.006;5.924;2022-09-21T04:00:10;8.85;;;2.20;;
73841;SDS011;62184;52.006;5.924;2022-09-21T04:02:38;6.63;;;2.10;;
73841;SDS011;62184;52.006;5.924;2022-09-21T04:05:05;8.32;;;2.60;;
73841;SDS011;62184;52.006;5.924;2022-09-21T04:07:34;8.70;;;2.42;;
73841;SDS011;62184;52.006;5.924;2022-09-21T04:10:01;8.80;;;2.20;;
73841;SDS011;62184;52.006;5.924;2022-09-21T04:12:33;9.97;;;2.63;;
73841;SDS011;62184;52.006;5.924;2022-09-21T04:15:00;8.40;;;2.53;;
73841;SDS011;62184;52.006;5.924;2022-09-21T04:17:26;9.38;;;2.40;;
73841;SDS011;62184;52.006;5.924;2022-09-21T04:19:53;10.33;;;2.50;;
73841;SDS011;62184;52.006;5.924;2022-09-21T04:22:20;9.97;;;2.30;;
73841;SDS011;62184;52.006;5.924;2022-09-21T04:24:46;9.17;;;2.23;;
73841;SDS011;62184;52.006;5.924;2022-09-21T04:27:12;8.50;;;2.10;;
73841;SDS011;62184;52.006;5.924;2022-09-21T04:29:42;8.57;;;2.00;;
73841;SDS011;62184;52.006;5.924;2022-09-21T04:32:09;8.35;;;2.40;;
73841;SDS011;62184;52.006;5.924;2022-09-21T04:34:36;10.88;;;2.30;;
73841;SDS011;62184;52.006;5.924;2022-09-21T04:37:02;8.88;;;2.35;;
73841;SDS011;62184;52.006;5.924;2022-09-21T04:39:29;8.07;;;2.17;;
73841;SDS011;62184;52.006;5.924;2022-09-21T04:41:55;8.57;;;2.03;;
73841;SDS011;62184;52.006;5.924;2022-09-21T04:44:22;11.23;;;2.50;;
73841;SDS011;62184;52.006;5.924;2022-09-21T04:46:51;9.50;;;2.37;;
73841;SDS011;62184;52.006;5.924;2022-09-21T04:49:17;8.70;;;2.10;;
73841;SDS011;62184;52.006;5.924;2022-09-21T04:51:44;8.93;;;1.90;;
73841;SDS011;62184;52.006;5.924;2022-09-21T04:54:10;7.80;;;2.37;;
73841;SDS011;62184;52.006;5.924;2022-09-21T04:56:37;9.30;;;2.40;;
73841;SDS011;62184;52.006;5.924;2022-09-21T04:59:03;10.37;;;2.33;;
73841;SDS011;62184;52.006;5.924;2022-09-21T05:01:30;8.32;;;2.30;;
73841;SDS011;62184;52.006;5.924;2022-09-21T05:03:59;7.88;;;2.42;;
73841;SDS011;62184;52.006;5.924;2022-09-21T05:06:26;9.55;;;2.53;;
73841;SDS011;62184;52.006;5.924;2022-09-21T05:08:53;8.43;;;2.28;;
73841;SDS011;62184;52.006;5.924;2022-09-21T05:11:19;9.27;;;2.03;;
73841;SDS011;62184;52.006;5.924;2022-09-21T05:13:46;9.90;;;2.25;;
73841;SDS011;62184;52.006;5.924;2022-09-21T05:16:13;10.10;;;2.20;;
73841;SDS011;62184;52.006;5.924;2022-09-21T05:18:40;8.57;;;2.30;;
73841;SDS011;62184;52.006;5.924;2022-09-21T05:21:10;8.57;;;2.17;;
73841;SDS011;62184;52.006;5.924;2022-09-21T05:23:38;10.27;;;2.15;;
73841;SDS011;62184;52.006;5.924;2022-09-21T05:26:05;8.65;;;2.28;;
73841;SDS011;62184;52.006;5.924;2022-09-21T05:28:33;8.07;;;2.20;;
73841;SDS011;62184;52.006;5.924;2022-09-21T05:31:02;10.02;;;2.40;;
73841;SDS011;62184;52.006;5.924;2022-09-21T05:33:47;9.95;;;2.30;;
73841;SDS011;62184;52.006;5.924;2022-09-21T05:36:26;9.00;;;2.37;;
73841;SDS011;62184;52.006;5.924;2022-09-21T05:39:10;9.25;;;2.63;;
73841;SDS011;62184;52.006;5.924;2022-09-21T05:41:38;11.80;;;2.73;;
73841;SDS011;62184;52.006;5.924;2022-09-21T05:44:08;9.65;;;2.20;;
73841;SDS011;62184;52.006;5.924;2022-09-21T05:46:38;7.32;;;2.40;;
73841;SDS011;62184;52.006;5.924;2022-09-21T05:49:12;10.25;;;2.80;;
73841;SDS011;62184;52.006;5.924;2022-09-21T05:51:51;9.13;;;2.30;;
73841;SDS011;62184;52.006;5.924;2022-09-21T05:54:30;10.60;;;2.40;;
73841;SDS011;62184;52.006;5.924;2022-09-21T05:57:11;8.93;;;2.60;;
73841;SDS011;62184;52.006;5.924;2022-09-21T05:59:50;10.32;;;2.72;;
73841;SDS011;62184;52.006;5.924;2022-09-21T06:02:34;8.27;;;2.77;;
73841;SDS011;62184;52.006;5.924;2022-09-21T06:05:19;10.65;;;3.30;;
73841;SDS011;62184;52.006;5.924;2022-09-21T06:07:49;9.70;;;3.10;;
73841;SDS011;62184;52.006;5.924;2022-09-21T06:10:16;10.23;;;2.70;;
73841;SDS011;62184;52.006;5.924;2022-09-21T06:12:43;9.95;;;2.72;;
73841;SDS011;62184;52.006;5.924;2022-09-21T06:15:10;9.77;;;2.75;;
73841;SDS011;62184;52.006;5.924;2022-09-21T06:17:39;10.20;;;3.35;;
73841;SDS011;62184;52.006;5.924;2022-09-21T06:20:07;9.82;;;3.20;;
73841;SDS011;62184;52.006;5.924;2022-09-21T06:22:34;8.43;;;2.77;;
73841;SDS011;62184;52.006;5.924;2022-09-21T06:25:03;10.73;;;3.33;;
73841;SDS011;62184;52.006;5.924;2022-09-21T06:27:31;11.98;;;3.58;;
73841;SDS011;62184;52.006;5.924;2022-09-21T06:29:58;10.00;;;3.33;;
73841;SDS011;62184;52.006;5.924;2022-09-21T06:32:24;9.70;;;3.60;;
73841;SDS011;62184;52.006;5.924;2022-09-21T06:34:51;10.60;;;3.73;;
73841;SDS011;62184;52.006;5.924;2022-09-21T06:37:17;9.37;;;3.70;;
73841;SDS011;62184;52.006;5.924;2022-09-21T06:39:44;11.48;;;4.10;;
73841;SDS011;62184;52.006;5.924;2022-09-21T06:42:13;11.43;;;4.00;;
73841;SDS011;62184;52.006;5.924;2022-09-21T06:44:39;11.73;;;4.23;;
73841;SDS011;62184;52.006;5.924;2022-09-21T06:47:06;13.83;;;4.53;;
73841;SDS011;62184;52.006;5.924;2022-09-21T06:49:33;12.32;;;4.43;;
73841;SDS011;62184;52.006;5.924;2022-09-21T06:52:00;14.02;;;4.93;;
73841;SDS011;62184;52.006;5.924;2022-09-21T06:54:27;15.80;;;6.00;;
73841;SDS011;62184;52.006;5.924;2022-09-21T06:56:53;18.83;;;6.97;;
73841;SDS011;62184;52.006;5.924;2022-09-21T06:59:22;17.40;;;6.13;;
73841;SDS011;62184;52.006;5.924;2022-09-21T07:01:48;12.23;;;5.22;;
73841;SDS011;62184;52.006;5.924;2022-09-21T07:04:15;14.52;;;5.20;;
73841;SDS011;62184;52.006;5.924;2022-09-21T07:06:41;12.27;;;4.97;;
73841;SDS011;62184;52.006;5.924;2022-09-21T07:09:08;10.80;;;4.80;;
73841;SDS011;62184;52.006;5.924;2022-09-21T07:11:34;14.80;;;5.32;;
73841;SDS011;62184;52.006;5.924;2022-09-21T07:14:00;12.55;;;5.13;;
73841;SDS011;62184;52.006;5.924;2022-09-21T07:16:29;10.10;;;5.15;;
73841;SDS011;62184;52.006;5.924;2022-09-21T07:18:56;10.30;;;5.25;;
73841;SDS011;62184;52.006;5.924;2022-09-21T07:21:22;10.93;;;4.40;;
73841;SDS011;62184;52.006;5.924;2022-09-21T07:23:49;12.35;;;4.50;;
73841;SDS011;62184;52.006;5.924;2022-09-21T07:26:15;9.98;;;4.47;;
73841;SDS011;62184;52.006;5.924;2022-09-21T07:28:42;11.82;;;4.13;;
73841;SDS011;62184;52.006;5.924;2022-09-21T07:31:09;9.88;;;3.95;;
73841;SDS011;62184;52.006;5.924;2022-09-21T07:33:41;11.77;;;3.92;;
73841;SDS011;62184;52.006;5.924;2022-09-21T07:36:09;11.48;;;4.10;;
73841;SDS011;62184;52.006;5.924;2022-09-21T07:38:37;11.13;;;3.70;;
73841;SDS011;62184;52.006;5.924;2022-09-21T07:41:05;10.73;;;3.90;;
73841;SDS011;62184;52.006;5.924;2022-09-21T07:43:33;10.88;;;4.07;;
73841;SDS011;62184;52.006;5.924;2022-09-21T07:45:59;10.10;;;4.18;;
73841;SDS011;62184;52.006;5.924;2022-09-21T07:48:26;14.33;;;5.10;;
73841;SDS011;62184;52.006;5.924;2022-09-21T07:50:58;10.13;;;4.57;;
73841;SDS011;62184;52.006;5.924;2022-09-21T07:53:26;10.52;;;4.05;;
73841;SDS011;62184;52.006;5.924;2022-09-21T07:55:52;11.45;;;3.65;;
73841;SDS011;62184;52.006;5.924;2022-09-21T07:58:26;11.35;;;3.78;;
73841;SDS011;62184;52.006;5.924;2022-09-21T08:00:52;10.23;;;3.90;;
73841;SDS011;62184;52.006;5.924;2022-09-21T08:03:19;9.57;;;3.53;;
73841;SDS011;62184;52.006;5.924;2022-09-21T08:05:45;9.10;;;3.50;;
73841;SDS011;62184;52.006;5.924;2022-09-21T08:08:14;9.30;;;2.97;;
73841;SDS011;62184;52.006;5.924;2022-09-21T08:10:41;9.10;;;3.13;;
73841;SDS011;62184;52.006;5.924;2022-09-21T08:13:07;10.23;;;3.63;;
73841;SDS011;62184;52.006;5.924;2022-09-21T08:15:34;9.60;;;3.15;;
73841;SDS011;62184;52.006;5.924;2022-09-21T08:18:00;8.88;;;2.90;;
73841;SDS011;62184;52.006;5.924;2022-09-21T08:20:29;9.68;;;3.40;;
73841;SDS011;62184;52.006;5.924;2022-09-21T08:22:55;9.75;;;3.83;;
73841;SDS011;62184;52.006;5.924;2022-09-21T08:25:24;10.75;;;3.85;;
73841;SDS011;62184;52.006;5.924;2022-09-21T08:27:50;8.30;;;3.33;;
73841;SDS011;62184;52.006;5.924;2022-09-21T08:30:21;10.52;;;3.60;;
73841;SDS011;62184;52.006;5.924;2022-09-21T08:32:48;11.48;;;4.43;;
73841;SDS011;62184;52.006;5.924;2022-09-21T08:35:14;10.80;;;4.45;;
73841;SDS011;62184;52.006;5.924;2022-09-21T08:37:41;11.65;;;4.72;;
73841;SDS011;62184;52.006;5.924;2022-09-21T08:40:08;15.15;;;6.30;;
73841;SDS011;62184;52.006;5.924;2022-09-21T08:42:43;12.07;;;5.30;;
73841;SDS011;62184;52.006;5.924;2022-09-21T08:45:30;11.43;;;4.97;;
73841;SDS011;62184;52.006;5.924;2022-09-21T08:48:03;10.52;;;3.97;;
73841;SDS011;62184;52.006;5.924;2022-09-21T08:50:39;11.77;;;4.45;;
73841;SDS011;62184;52.006;5.924;2022-09-21T08:53:11;11.23;;;4.07;;
73841;SDS011;62184;52.006;5.924;2022-09-21T08:55:44;11.93;;;3.75;;
73841;SDS011;62184;52.006;5.924;2022-09-21T08:58:18;9.02;;;2.47;;
73841;SDS011;62184;52.006;5.924;2022-09-21T09:00:51;9.98;;;3.60;;
73841;SDS011;62184;52.006;5.924;2022-09-21T09:03:52;9.50;;;3.40;;
73841;SDS011;62184;52.006;5.924;2022-09-21T09:06:45;12.80;;;4.20;;
73841;SDS011;62184;52.006;5.924;2022-09-21T09:09:32;11.60;;;3.83;;
73841;SDS011;62184;52.006;5.924;2022-09-21T09:12:18;11.07;;;4.30;;
73841;SDS011;62184;52.006;5.924;2022-09-21T09:15:12;10.90;;;4.00;;
73841;SDS011;62184;52.006;5.924;2022-09-21T09:18:03;9.45;;;3.50;;
73841;SDS011;62184;52.006;5.924;2022-09-21T09:20:42;11.02;;;4.25;;
73841;SDS011;62184;52.006;5.924;2022-09-21T09:23:18;8.25;;;2.85;;
73841;SDS011;62184;52.006;5.924;2022-09-21T09:25:51;10.45;;;3.53;;
73841;SDS011;62184;52.006;5.924;2022-09-21T09:28:27;8.38;;;3.20;;
73841;SDS011;62184;52.006;5.924;2022-09-21T09:31:02;9.63;;;3.00;;
73841;SDS011;62184;52.006;5.924;2022-09-21T09:33:42;9.80;;;3.75;;
73841;SDS011;62184;52.006;5.924;2022-09-21T09:36:18;9.05;;;3.60;;
73841;SDS011;62184;52.006;5.924;2022-09-21T09:38:46;8.63;;;3.15;;
73841;SDS011;62184;52.006;5.924;2022-09-21T09:41:27;7.80;;;2.30;;
73841;SDS011;62184;52.006;5.924;2022-09-21T09:44:53;7.77;;;2.37;;
73841;SDS011;62184;52.006;5.924;2022-09-21T09:47:47;7.53;;;1.98;;
73841;SDS011;62184;52.006;5.924;2022-09-21T09:50:32;8.80;;;2.10;;
73841;SDS011;62184;52.006;5.924;2022-09-21T09:53:03;8.77;;;2.13;;
73841;SDS011;62184;52.006;5.924;2022-09-21T09:55:36;7.50;;;1.47;;
73841;SDS011;62184;52.006;5.924;2022-09-21T09:58:11;7.78;;;1.67;;
73841;SDS011;62184;52.006;5.924;2022-09-21T10:00:44;7.20;;;2.10;;
73841;SDS011;62184;52.006;5.924;2022-09-21T10:03:18;7.95;;;2.38;;
73841;SDS011;62184;52.006;5.924;2022-09-21T10:05:47;7.78;;;2.35;;
73841;SDS011;62184;52.006;5.924;2022-09-21T10:11:11;8.10;;;2.13;;
73841;SDS011;62184;52.006;5.924;2022-09-21T10:13:40;8.18;;;1.58;;
73841;SDS011;62184;52.006;5.924;2022-09-21T10:16:13;8.35;;;1.60;;
73841;SDS011;62184;52.006;5.924;2022-09-21T10:18:47;5.90;;;1.50;;
73841;SDS011;62184;52.006;5.924;2022-09-21T10:21:18;6.38;;;1.30;;
73841;SDS011;62184;52.006;5.924;2022-09-21T10:23:49;6.50;;;1.43;;
73841;SDS011;62184;52.006;5.924;2022-09-21T10:26:21;6.82;;;1.52;;
73841;SDS011;62184;52.006;5.924;2022-09-21T10:28:54;6.28;;;1.40;;
73841;SDS011;62184;52.006;5.924;2022-09-21T10:31:24;7.20;;;1.30;;
73841;SDS011;62184;52.006;5.924;2022-09-21T10:34:05;6.45;;;1.20;;
73841;SDS011;62184;52.006;5.924;2022-09-21T10:36:38;7.20;;;1.30;;
73841;SDS011;62184;52.006;5.924;2022-09-21T10:39:16;7.05;;;1.70;;
73841;SDS011;62184;52.006;5.924;2022-09-21T10:41:55;6.30;;;1.15;;
73841;SDS011;62184;52.006;5.924;2022-09-21T10:44:27;5.18;;;1.00;;
73841;SDS011;62184;52.006;5.924;2022-09-21T10:47:16;5.30;;;1.02;;
73841;SDS011;62184;52.006;5.924;2022-09-21T10:49:50;5.57;;;1.20;;
73841;SDS011;62184;52.006;5.924;2022-09-21T10:52:21;5.70;;;1.20;;
73841;SDS011;62184;52.006;5.924;2022-09-21T10:54:56;6.03;;;1.38;;
73841;SDS011;62184;52.006;5.924;2022-09-21T10:57:24;5.65;;;1.33;;
73841;SDS011;62184;52.006;5.924;2022-09-21T10:59:53;6.20;;;1.33;;
73841;SDS011;62184;52.006;5.924;2022-09-21T11:02:25;6.35;;;1.50;;
73841;SDS011;62184;52.006;5.924;2022-09-21T11:05:03;6.30;;;1.30;;
73841;SDS011;62184;52.006;5.924;2022-09-21T11:07:40;5.47;;;1.10;;
73841;SDS011;62184;52.006;5.924;2022-09-21T11:10:18;6.68;;;1.17;;
73841;SDS011;62184;52.006;5.924;2022-09-21T11:12:54;5.88;;;1.20;;
73841;SDS011;62184;52.006;5.924;2022-09-21T11:15:42;7.18;;;1.30;;
73841;SDS011;62184;52.006;5.924;2022-09-21T11:18:18;5.72;;;1.10;;
73841;SDS011;62184;52.006;5.924;2022-09-21T11:20:58;4.80;;;1.10;;
73841;SDS011;62184;52.006;5.924;2022-09-21T11:23:42;5.03;;;1.20;;
73841;SDS011;62184;52.006;5.924;2022-09-21T11:26:24;5.93;;;1.20;;
73841;SDS011;62184;52.006;5.924;2022-09-21T11:28:58;5.57;;;1.27;;
73841;SDS011;62184;52.006;5.924;2022-09-21T11:31:47;5.88;;;1.00;;
73841;SDS011;62184;52.006;5.924;2022-09-21T11:34:44;5.80;;;1.20;;
73841;SDS011;62184;52.006;5.924;2022-09-21T11:37:44;5.95;;;1.20;;
73841;SDS011;62184;52.006;5.924;2022-09-21T11:40:25;5.07;;;1.30;;
73841;SDS011;62184;52.006;5.924;2022-09-21T11:43:10;6.30;;;1.30;;
73841;SDS011;62184;52.006;5.924;2022-09-21T11:46:04;5.50;;;1.13;;
73841;SDS011;62184;52.006;5.924;2022-09-21T11:48:47;4.88;;;1.00;;
73841;SDS011;62184;52.006;5.924;2022-09-21T11:51:35;6.22;;;1.17;;
73841;SDS011;62184;52.006;5.924;2022-09-21T11:57:23;7.38;;;1.42;;
73841;SDS011;62184;52.006;5.924;2022-09-21T12:00:01;6.53;;;1.10;;
73841;SDS011;62184;52.006;5.924;2022-09-21T12:02:49;6.20;;;1.13;;
73841;SDS011;62184;52.006;5.924;2022-09-21T12:06:00;5.65;;;1.35;;
73841;SDS011;62184;52.006;5.924;2022-09-21T12:08:43;4.95;;;1.20;;
73841;SDS011;62184;52.006;5.924;2022-09-21T12:11:31;6.72;;;1.20;;
73841;SDS011;62184;52.006;5.924;2022-09-21T12:14:09;6.82;;;1.10;;
73841;SDS011;62184;52.006;5.924;2022-09-21T12:16:51;5.87;;;1.10;;
73841;SDS011;62184;52.006;5.924;2022-09-21T12:19:32;4.65;;;1.15;;
73841;SDS011;62184;52.006;5.924;2022-09-21T12:22:12;5.65;;;1.40;;
73841;SDS011;62184;52.006;5.924;2022-09-21T12:24:47;5.32;;;1.20;;
73841;SDS011;62184;52.006;5.924;2022-09-21T12:27:24;6.10;;;1.13;;
73841;SDS011;62184;52.006;5.924;2022-09-21T12:29:57;5.80;;;1.10;;
73841;SDS011;62184;52.006;5.924;2022-09-21T12:32:32;5.83;;;1.20;;
73841;SDS011;62184;52.006;5.924;2022-09-21T12:35:14;6.35;;;1.55;;
73841;SDS011;62184;52.006;5.924;2022-09-21T12:37:50;5.80;;;0.90;;
73841;SDS011;62184;52.006;5.924;2022-09-21T12:40:27;5.85;;;1.20;;
73841;SDS011;62184;52.006;5.924;2022-09-21T12:43:06;5.03;;;1.10;;
73841;SDS011;62184;52.006;5.924;2022-09-21T12:45:51;5.53;;;0.97;;
73841;SDS011;62184;52.006;5.924;2022-09-21T12:48:27;4.82;;;1.33;;
73841;SDS011;62184;52.006;5.924;2022-09-21T12:50:59;5.50;;;1.10;;
73841;SDS011;62184;52.006;5.924;2022-09-21T12:53:37;5.68;;;1.30;;
73841;SDS011;62184;52.006;5.924;2022-09-21T12:56:10;5.30;;;1.20;;
73841;SDS011;62184;52.006;5.924;2022-09-21T12:58:49;5.25;;;1.00;;
73841;SDS011;62184;52.006;5.924;2022-09-21T13:01:40;5.60;;;1.00;;
73841;SDS011;62184;52.006;5.924;2022-09-21T13:10:06;5.47;;;1.25;;
73841;SDS011;62184;52.006;5.924;2022-09-21T13:12:41;4.35;;;0.80;;
73841;SDS011;62184;52.006;5.924;2022-09-21T13:15:16;5.10;;;1.08;;
73841;SDS011;62184;52.006;5.924;2022-09-21T13:17:55;4.53;;;0.90;;
73841;SDS011;62184;52.006;5.924;2022-09-21T13:20:25;3.53;;;0.90;;
73841;SDS011;62184;52.006;5.924;2022-09-21T13:22:58;6.15;;;1.00;;
73841;SDS011;62184;52.006;5.924;2022-09-21T13:25:26;5.00;;;0.90;;
73841;SDS011;62184;52.006;5.924;2022-09-21T13:28:03;5.00;;;0.85;;
73841;SDS011;62184;52.006;5.924;2022-09-21T13:30:46;4.50;;;0.93;;
73841;SDS011;62184;52.006;5.924;2022-09-21T13:33:39;5.75;;;1.17;;
73841;SDS011;62184;52.006;5.924;2022-09-21T13:36:44;5.75;;;0.90;;
73841;SDS011;62184;52.006;5.924;2022-09-21T13:39:30;5.38;;;1.00;;
73841;SDS011;62184;52.006;5.924;2022-09-21T13:41:56;4.68;;;1.00;;
73841;SDS011;62184;52.006;5.924;2022-09-21T13:44:36;7.35;;;1.50;;
73841;SDS011;62184;52.006;5.924;2022-09-21T13:47:07;5.78;;;0.90;;
73841;SDS011;62184;52.006;5.924;2022-09-21T13:49:47;5.57;;;1.00;;
73841;SDS011;62184;52.006;5.924;2022-09-21T13:52:22;5.40;;;0.82;;
73841;SDS011;62184;52.006;5.924;2022-09-21T13:54:56;4.97;;;1.10;;
73841;SDS011;62184;52.006;5.924;2022-09-21T13:57:28;5.15;;;1.13;;
73841;SDS011;62184;52.006;5.924;2022-09-21T14:00:05;4.30;;;0.85;;
73841;SDS011;62184;52.006;5.924;2022-09-21T14:02:56;4.28;;;0.90;;
73841;SDS011;62184;52.006;5.924;2022-09-21T14:05:32;5.47;;;0.90;;
73841;SDS011;62184;52.006;5.924;2022-09-21T14:08:11;5.35;;;0.90;;
73841;SDS011;62184;52.006;5.924;2022-09-21T14:10:50;4.68;;;1.00;;
73841;SDS011;62184;52.006;5.924;2022-09-21T14:13:28;5.38;;;0.98;;
73841;SDS011;62184;52.006;5.924;2022-09-21T14:25:21;5.32;;;0.95;;
73841;SDS011;62184;52.006;5.924;2022-09-21T14:28:12;4.20;;;0.80;;
73841;SDS011;62184;52.006;5.924;2022-09-21T14:30:40;4.80;;;1.00;;
73841;SDS011;62184;52.006;5.924;2022-09-21T14:33:30;4.90;;;0.80;;
73841;SDS011;62184;52.006;5.924;2022-09-21T14:36:08;3.83;;;0.77;;
73841;SDS011;62184;52.006;5.924;2022-09-21T14:38:54;3.97;;;0.70;;
73841;SDS011;62184;52.006;5.924;2022-09-21T14:41:29;5.18;;;0.90;;
73841;SDS011;62184;52.006;5.924;2022-09-21T14:44:03;5.68;;;0.95;;
73841;SDS011;62184;52.006;5.924;2022-09-21T14:46:34;5.23;;;0.90;;
73841;SDS011;62184;52.006;5.924;2022-09-21T14:49:28;5.20;;;1.00;;
73841;SDS011;62184;52.006;5.924;2022-09-21T14:52:17;6.40;;;0.90;;
73841;SDS011;62184;52.006;5.924;2022-09-21T14:55:07;4.05;;;0.80;;
73841;SDS011;62184;52.006;5.924;2022-09-21T14:57:47;6.18;;;0.98;;
73841;SDS011;62184;52.006;5.924;2022-09-21T15:00:45;5.38;;;0.90;;
73841;SDS011;62184;52.006;5.924;2022-09-21T15:06:21;4.45;;;1.00;;
73841;SDS011;62184;52.006;5.924;2022-09-21T15:09:02;5.00;;;0.90;;
73841;SDS011;62184;52.006;5.924;2022-09-21T15:11:58;4.30;;;0.80;;
73841;SDS011;62184;52.006;5.924;2022-09-21T15:14:36;4.57;;;0.83;;
73841;SDS011;62184;52.006;5.924;2022-09-21T15:17:22;4.32;;;0.90;;
73841;SDS011;62184;52.006;5.924;2022-09-21T15:19:51;4.43;;;0.90;;
73841;SDS011;62184;52.006;5.924;2022-09-21T15:22:23;4.90;;;0.90;;
73841;SDS011;62184;52.006;5.924;2022-09-21T15:24:50;4.63;;;1.00;;
73841;SDS011;62184;52.006;5.924;2022-09-21T15:27:21;3.83;;;0.90;;
73841;SDS011;62184;52.006;5.924;2022-09-21T15:29:53;4.60;;;1.00;;
73841;SDS011;62184;52.006;5.924;2022-09-21T15:32:23;4.43;;;0.90;;
73841;SDS011;62184;52.006;5.924;2022-09-21T15:35:00;4.30;;;1.00;;
73841;SDS011;62184;52.006;5.924;2022-09-21T15:37:33;4.88;;;1.02;;
73841;SDS011;62184;52.006;5.924;2022-09-21T15:40:03;4.80;;;1.20;;
73841;SDS011;62184;52.006;5.924;2022-09-21T15:42:47;4.70;;;0.80;;
73841;SDS011;62184;52.006;5.924;2022-09-21T15:45:25;4.40;;;0.90;;
73841;SDS011;62184;52.006;5.924;2022-09-21T15:47:55;7.18;;;1.20;;
73841;SDS011;62184;52.006;5.924;2022-09-21T15:50:21;5.30;;;1.02;;